Airfield :
LOGIN :

Register | Disclaimer

   EN    FR    IT 

 










Legend :    VFR   Marginal VFR   IFR   Intensive IFR   Very Intensive IFR
Visi :
Ceiling :
>= 8 km
>= 3000ft
5 to 8 km
1000 to 3000 ft
1500m to 5 km
500 to 1000 ft
800 to 1500m
200 to 500 ft
< 800m
< 200 ft
Symbols :   Thunderstorms  Fog  Heavy snow  Heavy precipitations  Wind > 20 kt
SIGMETs :     Misc.  Thunderstorms  Icing  Turbulence  Mountain Waves  Volcanic Ashes







- Airport Elevation : 2077 ft
- IATA code : FMM


EDJA - Memmingen

CURRENT METAR :
  • 281020Z 24010KT 9999 FEW033 21/13 Q1004

EXPIRED METARs :
  • 280950Z 22008KT 200V260 CAVOK 20/14 Q1004
  • 280920Z 22010KT 9999 FEW021 19/14 Q1004
  • 280850Z 23007KT 210V270 9999 NSC 18/14 Q1004
  • 280820Z 23011KT 9999 FEW033 BKN088 17/14 Q1004
  • 280750Z 21012KT 9999 -RA FEW020 SCT062 BKN069 17/14 Q1004

TAF TAF EDJA
Valid from the 28 at 09:00 until the 28 at 18:00 UTC


280800Z 2809/2818 24008KT 9999 SCT035
TEMPO 2809/2818 SHRA SCT030CB
PROB30
TEMPO 2809/2814 27020G30KT TSRA BKN030CB
PROB40
TEMPO 2817/2818 27020G35KT 4000 TSRA BKN030CB
No reported NOTAMs for that airfield.
1 SIGMET reported for the München FIR (EDMM) :
 
Embedded thunderstorms
EDMM SIGMET 2 VALID 281004/281200 EDZM
EDMM MUNCHEN FIR EMBD TS OBS WI N5155 E01209 - N5130 E01330 - N5030 E01245 - N5100 E01040 - N5123 E01027 - N5152 E01112 - N5155 E01209 TOP FL400 MOV N NC=



MET'MAP, your aeronautical weather chart ! - Copyright ORBIFLY December 2007 - Disclaimer

ORBIFLY MET'MAP TEAM :

Programming & Development : Alexandra Zaïnal
Concept & Development : Baudouin d'Aumeries
Co-Development & Prog : Marc-Olivier Méhu
Technical & hardware support : Manuel Goepfert

Contact : metmap@orbifly.com




SOURCES & CREDITS :

   NOAA